KAC176 OKKK-OOSA
Flight info
| Callsign | KAC176 |
|---|---|
| Flight time | N/A |
| Altitude | 35000 |
| Route | BOXIK B416 IMDOX P975 LONOS P708 OVONA N318 LAKLU/N0475F340 Q204 HAI B400 ASTUN |
| Aircraft | A320/M-SDE3FGHIRWY/LB1 |
Departure
| Time | 2026-05-07 18:03 |
|---|---|
| Airport | Kuwait International Airport (OKKK) |
Arrival
| Time | N/A |
|---|---|
| Airport | Salalah International Airport (OOSA) |
| Time | Latitude | Longitude | Altitude | Speed | Heading |
|---|---|---|---|---|---|
| 2026-05-07 17:29 | 29.24604 | 47.96245 | 167 ft | 0 kts | 65° |
| 2026-05-07 17:50 | 29.24598 | 47.96231 | 167 ft | 4 kts | 65° |
| 2026-05-07 17:50 | 29.24587 | 47.96203 | 166 ft | 4 kts | 66° |
| 2026-05-07 17:51 | 29.24577 | 47.96175 | 166 ft | 4 kts | 73° |
| 2026-05-07 17:51 | 29.24572 | 47.96145 | 165 ft | 4 kts | 95° |
| 2026-05-07 17:51 | 29.24579 | 47.96122 | 165 ft | 2 kts | 152° |
| 2026-05-07 17:51 | 29.24581 | 47.96120 | 165 ft | 0 kts | 155° |
| 2026-05-07 17:55 | 29.24579 | 47.96121 | 165 ft | 1 kts | 155° |
| 2026-05-07 17:55 | 29.24542 | 47.96141 | 165 ft | 10 kts | 155° |
| 2026-05-07 17:55 | 29.24486 | 47.96171 | 165 ft | 8 kts | 155° |
| 2026-05-07 17:55 | 29.24438 | 47.96196 | 165 ft | 7 kts | 155° |
| 2026-05-07 17:56 | 29.24387 | 47.96223 | 164 ft | 10 kts | 155° |
| 2026-05-07 17:56 | 29.24308 | 47.96264 | 164 ft | 15 kts | 155° |
| 2026-05-07 17:56 | 29.24202 | 47.96321 | 164 ft | 19 kts | 155° |
| 2026-05-07 17:56 | 29.24086 | 47.96381 | 164 ft | 17 kts | 156° |
| 2026-05-07 17:57 | 29.23982 | 47.96438 | 164 ft | 15 kts | 154° |
| 2026-05-07 17:57 | 29.23913 | 47.96475 | 164 ft | 19 kts | 154° |
| 2026-05-07 17:57 | 29.23725 | 47.96575 | 164 ft | 24 kts | 155° |
| 2026-05-07 17:57 | 29.23572 | 47.96656 | 163 ft | 25 kts | 155° |
| 2026-05-07 17:58 | 29.23413 | 47.96742 | 163 ft | 26 kts | 156° |
| 2026-05-07 17:58 | 29.23239 | 47.96834 | 164 ft | 28 kts | 154° |
| 2026-05-07 17:58 | 29.23061 | 47.96928 | 167 ft | 28 kts | 155° |
| 2026-05-07 17:58 | 29.22884 | 47.97020 | 167 ft | 28 kts | 155° |
| 2026-05-07 17:59 | 29.22707 | 47.97116 | 167 ft | 28 kts | 155° |
| 2026-05-07 17:59 | 29.22535 | 47.97206 | 167 ft | 26 kts | 156° |
| 2026-05-07 17:59 | 29.22368 | 47.97296 | 167 ft | 26 kts | 153° |
| 2026-05-07 17:59 | 29.22207 | 47.97380 | 167 ft | 24 kts | 155° |
| 2026-05-07 18:00 | 29.22064 | 47.97459 | 166 ft | 22 kts | 156° |
| 2026-05-07 18:00 | 29.21935 | 47.97526 | 166 ft | 19 kts | 155° |
| 2026-05-07 18:00 | 29.21821 | 47.97587 | 166 ft | 20 kts | 155° |
| 2026-05-07 18:00 | 29.21690 | 47.97657 | 167 ft | 19 kts | 155° |
| 2026-05-07 18:01 | 29.21580 | 47.97715 | 168 ft | 15 kts | 155° |
| 2026-05-07 18:01 | 29.21494 | 47.97760 | 169 ft | 13 kts | 155° |
| 2026-05-07 18:01 | 29.21380 | 47.97820 | 170 ft | 19 kts | 155° |
| 2026-05-07 18:01 | 29.21283 | 47.97857 | 170 ft | 12 kts | 188° |
| 2026-05-07 18:02 | 29.21256 | 47.97718 | 170 ft | 14 kts | 305° |
| 2026-05-07 18:02 | 29.21319 | 47.97621 | 170 ft | 11 kts | 304° |
| 2026-05-07 18:02 | 29.21391 | 47.97567 | 169 ft | 20 kts | 336° |
| 2026-05-07 18:03 | 29.21745 | 47.97379 | 167 ft | 90 kts | 335° |
| 2026-05-07 18:03 | 29.22490 | 47.96980 | 163 ft | 143 kts | 335° |
| 2026-05-07 18:03 | 29.23466 | 47.96455 | 592 ft | 155 kts | 334° |
| 2026-05-07 18:03 | 29.24451 | 47.95924 | 1161 ft | 159 kts | 330° |
| 2026-05-07 18:04 | 29.25487 | 47.95361 | 1665 ft | 175 kts | 329° |
| 2026-05-07 18:04 | 29.26648 | 47.94713 | 2015 ft | 195 kts | 329° |
| 2026-05-07 18:04 | 29.27903 | 47.93998 | 2346 ft | 215 kts | 329° |
| 2026-05-07 18:04 | 29.29330 | 47.93222 | 2686 ft | 239 kts | 331° |
| 2026-05-07 18:05 | 29.30940 | 47.92383 | 3048 ft | 263 kts | 332° |
| 2026-05-07 18:05 | 29.32645 | 47.91508 | 3699 ft | 272 kts | 333° |
| 2026-05-07 18:05 | 29.34507 | 47.91053 | 4452 ft | 286 kts | 359° |
| 2026-05-07 18:05 | 29.36475 | 47.91700 | 5200 ft | 300 kts | 30° |
| 2026-05-07 18:06 | 29.37924 | 47.93376 | 5913 ft | 307 kts | 60° |
| 2026-05-07 18:06 | 29.38961 | 47.95526 | 6691 ft | 310 kts | 63° |
| 2026-05-07 18:06 | 29.39978 | 47.97716 | 7470 ft | 313 kts | 63° |
| 2026-05-07 18:06 | 29.40999 | 47.99929 | 8265 ft | 315 kts | 63° |
| 2026-05-07 18:07 | 29.41966 | 48.02202 | 9048 ft | 318 kts | 72° |
| 2026-05-07 18:07 | 29.42397 | 48.04681 | 9811 ft | 318 kts | 91° |
| 2026-05-07 18:07 | 29.42172 | 48.07225 | 10240 ft | 329 kts | 109° |
| 2026-05-07 18:07 | 29.41206 | 48.09663 | 10426 ft | 345 kts | 128° |
| 2026-05-07 18:08 | 29.39574 | 48.11762 | 10570 ft | 363 kts | 139° |
| 2026-05-07 18:08 | 29.37732 | 48.13847 | 10857 ft | 378 kts | 139° |
| 2026-05-07 18:08 | 29.35850 | 48.15987 | 11421 ft | 384 kts | 139° |
| 2026-05-07 18:08 | 29.33945 | 48.18164 | 12055 ft | 389 kts | 138° |
| 2026-05-07 18:09 | 29.32021 | 48.20370 | 12689 ft | 393 kts | 138° |
| 2026-05-07 18:09 | 29.30081 | 48.22599 | 13353 ft | 397 kts | 139° |
| 2026-05-07 18:09 | 29.28123 | 48.24846 | 14016 ft | 398 kts | 139° |
| 2026-05-07 18:09 | 29.26184 | 48.27069 | 14613 ft | 401 kts | 139° |
| 2026-05-07 18:10 | 29.24209 | 48.29337 | 15054 ft | 403 kts | 139° |
| 2026-05-07 18:10 | 29.22221 | 48.31617 | 15655 ft | 406 kts | 139° |
| 2026-05-07 18:10 | 29.20216 | 48.33913 | 16229 ft | 408 kts | 140° |
| 2026-05-07 18:10 | 29.18205 | 48.36215 | 16785 ft | 411 kts | 140° |
| 2026-05-07 18:11 | 29.16178 | 48.38535 | 17332 ft | 413 kts | 140° |
| 2026-05-07 18:11 | 29.14803 | 48.40107 | 17702 ft | 415 kts | 140° |